Main page
METAR-TAF:

METAR-TAF

Airports :

Mar del Plata, Argentina

Astor Piazzolla International Airport

latitude: 37-56S, longitude: 057-35W, elevation: 18 m

Current weather observation

The report was made 28 minutes ago, at 19:00 UTC
Wind 16 kt from the South/Southwest, varying between South/Southeast and Southwest
Temperature 17°C
Humidity 63%
Pressure 1020 hPa
Visibility 10 km or more
Scattered clouds at a height of 3500 ft

METAR: SAZM 171900Z 20016KT 150V230 9999 SCT035 17/10 Q1020

Time: 16:28 (19:28 UTC)

Forecast

The report was made 2 hours and 28 minutes ago, at 17:00 UTC
Forecast valid from 17 at 18 UTC to 18 at 18 UTC
Wind 15 kt from the South
Visibility 10 km or more
Scattered clouds at a height of 3000 ft
Becoming
from 18 at 06 UTC to 18 at 09 UTC
Wind 10 kt from the North

TAF: SAZM 171700Z 1718/1818 18015KT 9999 SCT030 TX21/1818Z TN13/1810Z BECMG 1806/1809 36010KT

Weather observations and forecasts of more than 4000 airports (METAR and TAF reports).

The available stations are represented by yellow and red dots on the map.

Hover mouse over dot to see the name of the station.

Then click to see weather observations and forecasts.

To change the map : click on the green buttons with a black cross to zoom in, on the green button with a dash to zoom out, or on the green arrows for adjacent maps.


METAR-TAF: